• Join FlightAware (Why Join?)
  • Login
  • US Flag 
06:38AM EDT


 

Airport Tracker/Info


-or-


 

Live Flight TrackerFlight Track Log ✈ XOJ552 ✈ 23-Aug-2013 ✈ PAKN - KSNA

Flight Track Log - Related Links

Times and Time Zones

All times are in EDT time to prevent confusion due to time zone crossing. See the XOJ552 flight status page for this flight to view local times or setup timezone preferences in your user account.

Time Position Orientation Groundspeed Altitude Reporting Facility
EDT Latitude Longitude Course Direction KTS MPH feet Rate Location/Type
02:20PM 58.6167 -156.4333 114° Southeast 250 288 5,800  Level Anchorage Center
02:21PM 58.6000 -156.2833 102° East 290 334 9,700 3,600 Climbing Anchorage Center
02:22PM 58.5667 -156.1333 113° Southeast 300 345 13,100 3,300 Climbing Anchorage Center
02:23PM 58.5500 -155.9667 101° East 320 368 16,300 3,060 Climbing Anchorage Center
02:24PM 58.4805 -155.5254 112° Southeast  Level FlightAware Approximate
02:24PM 58.5167 -155.7833 109° East 340 391 19,300  Level Anchorage Center
02:25PM 58.4334 -155.3003 112° Southeast  Level FlightAware Approximate
02:25PM 58.4833 -155.6167 111° Southeast 360 414 22,000  Level Anchorage Center
02:26PM 58.3815 -155.0795 114° Southeast  Level FlightAware Approximate
02:26PM 58.4500 -155.4167 108° East 380 437 24,100  Level Anchorage Center
02:27PM 58.4167 -155.2167 108° East 420 483 25,800 1,980 Climbing Anchorage Center
02:28PM 58.3667 -155.0000 114° Southeast 430 495 28,100 2,100 Climbing Anchorage Center
02:29PM 58.3167 -154.7833 114° Southeast 440 506 30,100 1,860 Climbing Anchorage Center
02:30PM 58.2667 -154.5667 114° Southeast 450 518 31,900 1,560 Climbing Anchorage Center
02:31PM 58.2167 -154.3333 112° Southeast 460 529 33,300 1,200 Climbing Anchorage Center
02:32PM 58.1667 -154.1000 112° Southeast 480 552 34,300 1,140 Climbing Anchorage Center
02:33PM 58.1167 -153.8667 112° Southeast 490 564 35,600 1,080 Climbing Anchorage Center
02:34PM 58.0667 -153.6167 111° Southeast 500 575 36,500 1,200 Climbing Anchorage Center
02:35PM 58.0000 -153.3667 117° Southeast 500 575 38,000 1,200 Climbing Anchorage Center
02:36PM 57.9500 -153.1333 112° Southeast 500 575 39,000 960 Climbing Anchorage Center
02:37PM 57.9000 -152.8833 111° Southeast 500 575 40,000 960 Climbing Anchorage Center
02:38PM 57.8333 -152.6500 118° Southeast 490 564 41,000 480 Climbing Anchorage Center
02:39PM 57.7833 -152.4167 112° Southeast 500 575 41,000  Level Anchorage Center
02:40PM 57.7333 -152.1667 110° East 500 575 41,000  Level Anchorage Center
02:41PM 57.7000 -151.9000 103° East 510 587 41,000  Level Anchorage Center
02:42PM 57.6500 -151.6500 110° East 520 598 41,000  Level Anchorage Center
02:43PM 57.6000 -151.3833 109° East 520 598 41,000  Level Anchorage Center
02:44PM 57.5667 -151.1000 102° East 530 610 41,000  Level Anchorage Center
02:45PM 57.5167 -150.8500 110° East 520 598 41,000  Level Anchorage Center
02:47PM 57.4167 -150.3333 110° East 520 598 41,000  Level Anchorage Center
02:48PM 57.3833 -150.0667 103° East 520 598 41,000  Level Anchorage Center
02:49PM 57.3333 -149.8167 110° East 510 587 41,000  Level Anchorage Center
02:50PM 57.3000 -149.5667 104° East 520 598 41,000  Level Anchorage Center
02:51PM 57.2500 -149.3000 109° East 510 587 41,000  Level Anchorage Center
02:52PM 57.2000 -149.0500 110° East 520 598 41,000  Level Anchorage Center
02:53PM 57.1667 -148.8000 104° East 520 598 41,000  Level Anchorage Center
02:54PM 57.1167 -148.5500 110° East 510 587 41,000  Level Anchorage Center
02:55PM 57.0667 -148.3000 110° East 520 598 41,000  Level Anchorage Center
02:56PM 57.0167 -148.0500 110° East 510 587 41,000  Level Anchorage Center
02:57PM 56.9833 -147.8000 104° East 510 587 41,000  Level Anchorage Center
02:58PM 56.9333 -147.5500 110° East 520 598 41,000  Level Anchorage Center
02:59PM 56.8833 -147.3000 110° East 520 598 41,000  Level Anchorage Center
03:00PM 56.8333 -147.0333 109° East 520 598 41,000  Level Anchorage Center
03:01PM 56.7833 -146.7833 110° East 520 598 41,000  Level Anchorage Center
03:02PM 56.7333 -146.5333 110° East 520 598 41,000  Level Anchorage Center
03:03PM 56.6833 -146.2833 110° East 520 598 41,000  Level Anchorage Center
03:04PM 56.6333 -146.0500 111° Southeast 520 598 41,000  Level Anchorage Center
03:05PM 56.5833 -145.8000 110° East 510 587 41,000  Level Anchorage Center
03:06PM 56.5333 -145.5667 111° Southeast 510 587 41,000  Level Anchorage Center
03:07PM 56.4833 -145.3167 110° East 510 587 41,000  Level Anchorage Center
03:08PM 56.4333 -145.1167 114° Southeast 510 587 41,000  Level Anchorage Center
03:09PM 56.3667 -144.8333 113° Southeast 510 587 41,000  Level Anchorage Center
03:10PM 56.3167 -144.6167 113° Southeast 500 575 41,000  Level Anchorage Center
03:11PM 56.2667 -144.3667 110° East 500 575 41,000  Level Anchorage Center
03:12PM 56.2167 -144.1167 110° East 510 587 41,000  Level Anchorage Center
03:13PM 56.1667 -143.9000 112° Southeast 500 575 41,000  Level Anchorage Center
03:14PM 56.1167 -143.6667 111° Southeast 500 575 41,000  Level Anchorage Center
03:15PM 56.0500 -143.4500 119° Southeast 490 564 41,000  Level Anchorage Center
03:16PM 56.0000 -143.2167 111° Southeast 490 564 41,000  Level Anchorage Center
03:17PM 55.9500 -143.0000 112° Southeast 490 564 41,000  Level Anchorage Center
03:18PM 55.9000 -142.7667 111° Southeast 480 552 41,000  Level Anchorage Center
03:19PM 55.8500 -142.5333 111° Southeast 490 564 41,000  Level Anchorage Center
03:20PM 55.7833 -142.3167 119° Southeast 480 552 41,000  Level Anchorage Center
03:21PM 55.7333 -142.1167 114° Southeast 470 541 41,000  Level Anchorage Center
03:22PM 55.6833 -141.9167 114° Southeast 470 541 41,000  Level Anchorage Center
03:23PM 55.6333 -141.7000 112° Southeast 460 529 41,000  Level Anchorage Center
03:24PM 55.5833 -141.4833 112° Southeast 470 541 41,000  Level Anchorage Center
03:25PM 55.5333 -141.2833 114° Southeast 460 529 41,000  Level Anchorage Center
03:26PM 55.4667 -141.0667 118° Southeast 490 564 41,000  Level Anchorage Center
03:27PM 55.4167 -140.8500 112° Southeast 470 541 41,000  Level Anchorage Center
03:28PM 55.3667 -140.6500 114° Southeast 470 541 41,000  Level Anchorage Center
03:29PM 55.3000 -140.4333 118° Southeast 470 541 41,000  Level Anchorage Center
03:30PM 55.2500 -140.2167 112° Southeast 480 552 41,000  Level Anchorage Center
03:31PM 55.1833 -140.0000 118° Southeast 470 541 41,000  Level Anchorage Center
03:32PM 55.1333 -139.8000 114° Southeast 480 552 41,000  Level Anchorage Center
03:33PM 55.0667 -139.5833 118° Southeast 470 541 41,000  Level Anchorage Center
03:34PM 55.0167 -139.3833 113° Southeast 480 552 41,000  Level Anchorage Center
03:35PM 54.9500 -139.1667 118° Southeast 480 552 41,000  Level Anchorage Center
03:36PM 54.9000 -138.9667 113° Southeast 470 541 41,000  Level Anchorage Center
03:37PM 54.8333 -138.7500 118° Southeast 480 552 41,000  Level Anchorage Center
03:38PM 54.7833 -138.5500 113° Southeast 470 541 41,000  Level Anchorage Center
03:39PM 54.7167 -138.3500 120° Southeast 480 552 41,000  Level Anchorage Center
03:40PM 54.6500 -138.1333 118° Southeast 480 552 41,000  Level Anchorage Center
03:41PM 54.6000 -137.9333 113° Southeast 470 541 41,000  Level Anchorage Center
03:42PM 54.5333 -137.7333 120° Southeast 480 552 41,000  Level Anchorage Center
03:43PM 54.4667 -137.5333 120° Southeast 480 552 41,000  Level Anchorage Center
03:44PM 54.4167 -137.3333 113° Southeast 480 552 41,000  Level Anchorage Center
03:45PM 54.3500 -137.1167 118° Southeast 480 552 41,000  Level Anchorage Center
03:46PM 54.2833 -136.9167 120° Southeast 480 552 41,000  Level Anchorage Center
03:47PM 54.2167 -136.7167 120° Southeast 480 552 41,000  Level Anchorage Center
03:48PM 54.1500 -136.5167 120° Southeast 490 564 41,000 60 Level Anchorage Center
03:49PM 54.0833 -136.3000 118° Southeast 490 564 41,200 300 Climbing Anchorage Center
03:50PM 54.0167 -136.1000 120° Southeast 480 552 41,700 480 Climbing Anchorage Center
03:51PM 53.9333 -135.9333 130° Southeast 460 529 42,200 480 Climbing Anchorage Center
03:53PM 53.7833 -135.8333 158° South 470 541 42,900 480 Climbing Vancouver Center
03:54PM 53.6833 -135.7000 142° Southeast 460 529 43,400 480 Climbing Vancouver Center
03:55PM 53.5833 -135.5833 145° Southeast 450 518 43,900 360 Climbing Vancouver Center
03:56PM 53.4667 -135.4667 149° Southeast 450 518 44,200 240 Climbing Vancouver Center
03:57PM 53.3667 -135.3333 141° Southeast 450 518 44,400 180 Climbing Vancouver Center
03:58PM 53.2833 -135.2167 140° Southeast 450 518 44,600 180 Climbing Vancouver Center
03:59PM 53.1667 -135.1000 149° Southeast 440 506 44,800 180 Climbing Vancouver Center
04:00PM 53.0833 -135.0000 144° Southeast 440 506 45,000 60 Climbing Vancouver Center
04:01PM 52.9667 -134.8667 145° Southeast 440 506 45,000  Level Vancouver Center
04:02PM 52.8667 -134.7500 145° Southeast 450 518 45,000  Level Vancouver Center
04:03PM 52.7500 -134.6333 149° Southeast 450 518 45,000  Level Vancouver Center
04:04PM 52.6667 -134.5000 136° Southeast 450 518 45,000  Level Vancouver Center
04:05PM 52.5667 -134.4000 149° Southeast 450 518 45,000  Level Vancouver Center
04:06PM 52.4500 -134.2833 149° Southeast 460 529 45,000  Level Vancouver Center
04:07PM 52.3500 -134.1833 149° Southeast 460 529 45,000  Level Vancouver Center
04:08PM 52.2333 -134.0500 145° Southeast 460 529 45,000  Level Vancouver Center
04:09PM 52.1500 -133.9333 139° Southeast 460 529 45,000  Level Vancouver Center
04:10PM 52.0167 -133.8000 148° Southeast 460 529 45,000  Level Vancouver Center
04:11PM 51.9333 -133.7000 143° Southeast 460 529 45,000  Level Vancouver Center
04:12PM 51.8167 -133.6000 152° Southeast 450 518 45,000  Level Vancouver Center
04:13PM 51.7167 -133.4667 140° Southeast 460 529 45,000  Level Vancouver Center
04:14PM 51.6000 -133.3667 152° Southeast 460 529 45,000  Level Vancouver Center
04:15PM 51.5000 -133.2500 144° Southeast 460 529 45,000  Level Vancouver Center
04:16PM 51.4000 -133.1500 148° Southeast 460 529 45,000  Level Vancouver Center
04:17PM 51.3000 -133.0333 144° Southeast 450 518 45,000  Level Vancouver Center
04:18PM 51.1833 -132.9167 148° Southeast 450 518 45,000  Level Vancouver Center
04:19PM 51.0833 -132.8167 148° Southeast 450 518 45,000  Level Vancouver Center
04:20PM 50.9667 -132.7000 148° Southeast 460 529 45,000  Level Vancouver Center
04:21PM 50.8667 -132.6000 148° Southeast 450 518 45,000  Level Vancouver Center
04:22PM 50.7667 -132.5000 148° Southeast 450 518 45,000  Level Vancouver Center
04:23PM 50.6667 -132.4000 148° Southeast 450 518 45,000  Level Vancouver Center
04:24PM 50.5500 -132.2667 144° Southeast 450 518 45,000  Level Vancouver Center
04:25PM 50.4500 -132.1833 152° Southeast 450 518 45,000  Level Vancouver Center
04:26PM 50.3500 -132.0833 147° Southeast 450 518 45,000  Level Vancouver Center
04:27PM 50.2333 -131.9833 151° Southeast 450 518 45,000  Level Vancouver Center
04:28PM 50.1333 -131.8500 139° Southeast 450 518 45,000  Level Vancouver Center
04:29PM 50.0167 -131.7667 155° Southeast 450 518 45,000  Level Vancouver Center
04:30PM 49.9000 -131.6667 151° Southeast 450 518 45,000  Level Vancouver Center
04:31PM 49.8167 -131.5667 142° Southeast 450 518 45,000  Level Vancouver Center
04:32PM 49.7000 -131.5000 160° South 450 518 45,000  Level Vancouver Center
04:33PM 49.5833 -131.3833 147° Southeast 450 518 45,000  Level Vancouver Center
04:34PM 49.4833 -131.3167 157° South 450 518 45,000  Level Vancouver Center
04:35PM 49.3667 -131.1833 143° Southeast 450 518 45,000  Level Vancouver Center
04:36PM 49.2667 -131.1000 151° Southeast 450 518 45,000  Level Vancouver Center
04:37PM 49.1500 -131.0000 151° Southeast 450 518 45,000  Level Vancouver Center
04:38PM 49.0500 -130.9167 151° Southeast 450 518 45,000  Level Vancouver Center
04:39PM 48.9333 -130.8167 151° Southeast 450 518 45,000  Level Vancouver Center
04:40PM 48.8333 -130.7333 151° Southeast 450 518 45,000  Level Vancouver Center
04:41PM 48.7167 -130.6333 151° Southeast 440 506 45,000  Level Vancouver Center
04:42PM 48.6000 -130.5500 155° Southeast 450 518 45,000  Level Vancouver Center
04:43PM 48.5167 -130.4833 152° Southeast 440 506 45,000  Level Vancouver Center
04:44PM 48.4000 -130.3667 146° Southeast 440 506 45,000  Level Vancouver Center
04:45PM 48.2833 -130.3000 159° South 450 518 45,000  Level Vancouver Center
04:46PM 48.1667 -130.1833 146° Southeast 450 518 45,000  Level Vancouver Center
04:47PM 48.0667 -130.1000 151° Southeast 450 518 45,000  Level Vancouver Center
04:48PM 47.9500 -130.0000 150° Southeast 450 518 45,000  Level Vancouver Center
04:49PM 47.8500 -129.9167 151° Southeast 450 518 45,000  Level Vancouver Center
04:50PM 47.7333 -129.8333 154° Southeast 450 518 45,000  Level Vancouver Center
04:51PM 47.6333 -129.7500 151° Southeast 460 529 45,000  Level Vancouver Center
04:52PM 47.5167 -129.6500 150° Southeast 450 518 45,000  Level Vancouver Center
04:53PM 47.4000 -129.5667 154° Southeast 450 518 45,000  Level Vancouver Center
04:54PM 47.3000 -129.4833 151° Southeast 450 518 45,000  Level Vancouver Center
04:55PM 47.1833 -129.4000 154° Southeast 450 518 45,000  Level Vancouver Center
04:56PM 47.0667 -129.3167 154° Southeast 460 529 45,000  Level Vancouver Center
04:57PM 46.9500 -129.2333 154° Southeast 450 518 45,000  Level Vancouver Center
04:58PM 46.8667 -129.1500 146° Southeast 450 518 45,000  Level Vancouver Center
04:59PM 46.7500 -129.0667 154° Southeast 450 518 45,000  Level Vancouver Center
05:00PM 46.6333 -128.9667 150° Southeast 470 541 45,000  Level Vancouver Center
05:01PM 46.5167 -128.8833 154° Southeast 460 529 45,000  Level Vancouver Center
05:02PM 46.4000 -128.8000 154° Southeast 460 529 45,000  Level Vancouver Center
05:03PM 46.3000 -128.7167 150° Southeast 460 529 45,000  Level Vancouver Center
05:04PM 46.1833 -128.6333 154° Southeast 460 529 45,000  Level Vancouver Center
05:04PM 47.7000 -129.7667 152° Southeast 453 521 45,000  Level Oakland Oceanic (ODAPS)
05:05PM 46.0667 -128.5333 152° Southeast 460 529 45,000  Level Vancouver Center
05:06PM 45.9500 -128.4833 163° South 460 529 45,000  Level Vancouver Center
05:07PM 45.8500 -128.3667 141° Southeast 460 529 45,000  Level Vancouver Center
05:08PM 45.7333 -128.2833 153° Southeast 460 529 45,000  Level Vancouver Center
05:09PM 45.6167 -128.2000 153° Southeast 460 529 45,000  Level Vancouver Center
05:10PM 45.5000 -128.1333 158° South 460 529 45,000  Level Vancouver Center
05:11PM 45.3833 -128.0500 153° Southeast 460 529 45,000  Level Vancouver Center
05:12PM 45.2833 -127.9667 150° Southeast 460 529 45,000  Level Vancouver Center
05:13PM 45.1667 -127.8833 153° Southeast 460 529 45,000  Level Vancouver Center
05:14PM 45.0500 -127.8167 158° South 460 529 45,000  Level Vancouver Center
05:15PM 44.9333 -127.7000 145° Southeast 460 529 45,000  Level Vancouver Center
05:16PM 44.8167 -127.6333 158° South 460 529 45,000  Level Vancouver Center
05:17PM 44.7000 -127.5500 153° Southeast 460 529 45,000  Level Vancouver Center
05:19PM 44.5071 -127.4109 153° Southeast  Level FlightAware Approximate
05:23PM 44.0064 -127.0486 153° Southeast 459 528 45,000  Level Seattle Center
05:24PM 43.8908 -126.9694 154° Southeast 460 529 45,000  Level Seattle Center
05:25PM 43.7767 -126.8911 154° Southeast 461 531 45,000  Level Seattle Center
05:26PM 43.7188 -126.8531 153° Southeast  Level FlightAware Approximate
05:26PM 43.6639 -126.8153 154° Southeast 456 525 45,000  Level Seattle Center
05:27PM 43.6060 -126.7746 153° Southeast  Level FlightAware Approximate
05:27PM 43.5511 -126.7400 154° Southeast 453 521 45,000  Level Seattle Center
05:28PM 43.4931 -126.6964 153° Southeast  Level FlightAware Approximate
05:28PM 43.4372 -126.6614 153° Southeast 456 525 45,000  Level Seattle Center
05:29PM 43.3247 -126.5872 154° Southeast 452 520 45,000  Level Seattle Center
05:30PM 43.1914 -126.4975 154° Southeast 449 517 45,000  Level Seattle Center
05:31PM 43.0769 -126.4206 154° Southeast 452 520 45,000  Level Seattle Center
05:32PM 42.9631 -126.3442 154° Southeast 454 522 45,000 -60 Level Seattle Center
05:33PM 42.8511 -126.2542 149° Southeast 463 533 44,900  Descending Seattle Center
05:34PM 42.7381 -126.1417 144° Southeast 463 533 45,000  Climbing Seattle Center
05:35PM 42.6339 -126.0381 144° Southeast 465 535 44,900  Descending Seattle Center
05:36PM 42.5294 -125.9361 144° Southeast 463 533 45,000  Climbing Seattle Center
05:37PM 42.4261 -125.8328 144° Southeast 462 532 45,000  Level Seattle Center
05:38PM 42.3225 -125.7297 144° Southeast 463 533 45,000  Level Seattle Center
05:39PM 42.2192 -125.6278 144° Southeast 461 531 45,000  Level Seattle Center
05:40PM 42.1150 -125.5261 144° Southeast 462 532 45,000  Level Seattle Center
05:41PM 42.0114 -125.4253 144° Southeast 461 531 45,000  Level Seattle Center
05:42PM 41.9081 -125.3239 144° Southeast 462 532 45,000  Level Seattle Center
05:43PM 41.8044 -125.2228 144° Southeast 460 529 45,000  Level Seattle Center
05:44PM 41.7003 -125.1231 144° Southeast 461 531 45,000  Level Seattle Center
05:45PM 41.5764 -125.0036 144° Southeast 458 527 45,000  Level Seattle Center
05:46PM 41.4739 -124.9039 144° Southeast 457 526 45,000  Level Seattle Center
05:47PM 41.3706 -124.8053 144° Southeast 456 525 45,000  Level Seattle Center
05:48PM 41.2675 -124.7067 144° Southeast 455 524 45,000  Level Seattle Center
05:49PM 41.1628 -124.6089 145° Southeast 460 529 45,000  Level Seattle Center
05:50PM 41.0586 -124.5111 145° Southeast 459 528 45,000  Level Seattle Center
05:52PM 40.9550 -124.4136 145° Southeast 457 526 45,000  Level Seattle Center
05:53PM 40.8519 -124.3161 144° Southeast 457 526 45,000  Level Seattle Center
05:54PM 40.7467 -124.2192 145° Southeast 458 527 45,000  Level Seattle Center
05:55PM 40.6425 -124.1217 145° Southeast 458 527 45,000  Level Seattle Center
05:56PM 40.5222 -124.0103 145° Southeast 458 527 45,000  Level Seattle Center
05:57PM 40.4172 -123.9142 145° Southeast 461 531 45,000  Level Seattle Center
05:58PM 40.3222 -123.8286 146° Southeast 461 531 45,000  Level Oakland Center
05:59PM 40.2167 -123.7322 145° Southeast 461 531 45,000 -60 Level Oakland Center
06:00PM 40.1108 -123.6364 145° Southeast 462 532 44,900  Descending Oakland Center
06:01PM 40.0058 -123.5406 145° Southeast 461 531 45,000  Climbing Oakland Center
06:02PM 39.9011 -123.4461 145° Southeast 459 528 45,000  Level Oakland Center
06:03PM 39.7939 -123.3514 146° Southeast 463 533 45,000  Level Oakland Center
06:04PM 39.6678 -123.2364 145° Southeast 462 532 45,000  Level Oakland Center
06:05PM 39.5544 -123.1364 146° Southeast 466 536 45,000  Level Oakland Center
06:06PM 39.4475 -123.0411 145° Southeast 461 531 45,000  Level Oakland Center
06:07PM 39.3431 -122.9469 145° Southeast 459 528 45,000  Level Oakland Center
06:08PM 39.2397 -122.8583 146° Southeast 460 529 45,000  Level Oakland Center
06:09PM 39.1211 -122.7539 146° Southeast 464 534 45,000  Level Oakland Center
06:10PM 39.0158 -122.6608 146° Southeast 461 531 45,000  Level Oakland Center
06:11PM 38.9183 -122.5758 146° Southeast 459 528 45,000  Level Oakland Center
06:12PM 38.8036 -122.4756 146° Southeast 463 533 45,000  Level Oakland Center
06:13PM 38.6975 -122.3833 146° Southeast 463 533 45,000  Level Oakland Center
06:14PM 38.5769 -122.2783 146° Southeast 461 531 45,000  Level Oakland Center
06:15PM 38.4692 -122.1872 146° Southeast 462 532 45,000  Level Oakland Center
06:16PM 38.3625 -122.0950 146° Southeast 461 531 45,000  Level Oakland Center
06:17PM 38.2550 -122.0025 146° Southeast 463 533 45,000  Level Oakland Center
06:18PM 38.1475 -121.9122 147° Southeast 462 532 45,000  Level Oakland Center
06:19PM 38.0403 -121.8203 146° Southeast 463 533 45,000  Level Oakland Center
06:20PM 37.9322 -121.7297 147° Southeast 463 533 45,000  Level Oakland Center
06:21PM 37.8244 -121.6392 146° Southeast 462 532 45,000  Level Oakland Center
06:22PM 37.7167 -121.5503 147° Southeast 462 532 45,000  Level Oakland Center
06:23PM 37.5897 -121.4444 147° Southeast 457 526 45,000  Level Oakland Center
06:24PM 37.4831 -121.3556 147° Southeast 457 526 45,000  Level Oakland Center
06:25PM 37.3772 -121.2678 147° Southeast 457 526 45,000  Level Oakland Center
06:26PM 37.2756 -121.1844 147° Southeast 454 522 45,000  Level Oakland Center
06:27PM 37.1700 -121.0989 147° Southeast 453 521 45,000  Level Oakland Center
06:28PM 37.0650 -121.0119 147° Southeast 454 522 45,000  Level Oakland Center
06:29PM 36.9386 -120.9097 147° Southeast 452 520 45,000  Level Oakland Center
06:30PM 36.8322 -120.8225 147° Southeast 456 525 45,000  Level Oakland Center
06:31PM 36.7231 -120.7339 147° Southeast 455 524 45,000  Level Oakland Center
06:32PM 36.6172 -120.6486 147° Southeast 452 520 45,000  Level Oakland Center
06:33PM 36.5117 -120.5628 147° Southeast 453 521 45,000  Level Oakland Center
06:35PM 36.4061 -120.4767 147° Southeast 453 521 45,000  Level Oakland Center
06:36PM 36.2997 -120.3939 148° Southeast 452 520 45,000  Level Oakland Center
06:37PM 36.1936 -120.3083 147° Southeast 453 521 45,000  Level Oakland Center
06:38PM 36.0881 -120.2225 147° Southeast 454 522 45,000  Level Oakland Center
06:39PM 35.9822 -120.1386 147° Southeast 453 521 45,000  Level Oakland Center
06:40PM 35.8533 -120.0361 147° Southeast 455 524 45,000  Level Oakland Center
06:41PM 35.7467 -119.9519 147° Southeast 452 520 45,000 -60 Level Oakland Center
06:42PM 35.6378 -119.8667 148° Southeast 459 528 44,900  Descending Oakland Center
06:42PM 35.5731 -119.8156 147° Southeast 456 525 45,000  Climbing Los Angeles Center
06:43PM 35.4633 -119.7289 147° Southeast 463 533 45,000 -540 Level Los Angeles Center
06:44PM 35.3314 -119.6264 148° Southeast 464 534 44,000 -1,260 Descending Los Angeles Center
06:46PM 35.2231 -119.5419 148° Southeast 462 532 42,500 -1,740 Descending Los Angeles Center
06:47PM 35.1200 -119.4628 148° Southeast 444 511 40,400 -2,160 Descending Los Angeles Center
06:48PM 35.0172 -119.3839 148° Southeast 437 503 38,000 -2,280 Descending Los Angeles Center
06:49PM 34.9147 -119.3053 148° Southeast 435 501 35,700 -2,040 Descending Los Angeles Center
06:50PM 34.8128 -119.2258 147° Southeast 435 501 33,400 -2,460 Descending Los Angeles Center
06:51PM 34.6692 -119.1172 148° Southeast 456 525 30,200 -2,640 Descending Los Angeles Center
06:52PM 34.5647 -119.0425 149° Southeast 463 533 27,900 -2,520 Descending Los Angeles Center
06:53PM 34.4367 -118.9428 147° Southeast 457 526 25,000 -2,520 Descending Los Angeles Center
06:54PM 34.3281 -118.8769 153° Southeast 435 501 22,700 -1,980 Descending Los Angeles Center
06:55PM 34.2169 -118.8322 162° South 420 483 21,000 -1,680 Descending Los Angeles Center
06:56PM 34.1172 -118.7942 162° South 380 437 18,900 -2,280 Descending Los Angeles Center
06:57PM 33.9814 -118.7444 163° South 387 445 15,900 -2,340 Descending Los Angeles Center
06:58PM 33.8700 -118.7047 164° South 387 445 14,100 -960 Descending Los Angeles Center
06:59PM 33.7719 -118.6692 163° South 376 433 14,000 -960 Descending Los Angeles Center
07:00PM 33.6786 -118.6358 163° South 356 410 12,200 -1,860 Descending Los Angeles Center
07:01PM 33.6144 -118.5647 137° Southeast 330 380 10,200 -1,800 Descending Los Angeles Center
07:02PM 33.5617 -118.4861 129° Southeast 310 357 8,500 -1,800 Descending Los Angeles Center
07:04PM 33.5417 -118.3839 103° East 300 345 6,500 -1,680 Descending Los Angeles Center
07:05PM 33.5581 -118.2931 78° East 289 333 5,100 -780 Descending Los Angeles Center
07:06PM 33.5717 -118.2072 79° East 277 319 5,000 -60 Descending Los Angeles Center
07:07PM 33.5853 -118.1197 79° East 271 312 5,000 -60 Level Los Angeles Center
07:08PM 33.6244 -118.0328 62° Northeast 270 311 4,900  Descending Los Angeles Center
07:09PM 33.6803 -117.9944 30° Northeast 238 274 5,000  Climbing Los Angeles Center
07:10PM 33.7353 -117.9561 30° Northeast 232 267 4,900 -300 Descending Los Angeles Center
07:11PM 33.7839 -117.9147 35° Northeast 220 253 4,400 -600 Descending Los Angeles Center
07:12PM 33.8219 -117.8628 49° Northeast 212 244 3,700 -840 Descending Los Angeles Center
07:13PM 33.8025 -117.8081 113° Southeast 181 208 2,700 -900 Descending Los Angeles Center
07:14PM 33.7500 -117.8167 188° South 161 185 1,700 -840 Descending Southern California TRACON
07:15PM 33.7167 -117.8500 220° Southwest 123 142 900 -720 Descending Southern California TRACON
07:16PM 33.6833 -117.8667 203° Southwest 119 137 300 -600 Descending Southern California TRACON
07:18PM 33.6757 -117.8682 185° South  Level Estimated